Terminal Aerodrome Forecast
Issued by NWS

Home | Current Version | Previous Version | Text Only | Print | Product List | Glossary On
Versions: 1 2 3 4 5 6 7 8 9 10 11 12 13 14 15 16 17 18 19 20 21 22 23 24 25 26
911
FTUS45 KGJT 191624 AAA
TAFMTJ
TAF AMD
KMTJ 191624Z 1916/2012 19015G28KT P6SM VCSH FEW060 SCT080 BKN090
     FM200100 23017G26KT P6SM -SHSN BKN045 OVC050
     FM200500 23012G20KT P6SM VCSH SCT040 BKN060
     FM201100 23007KT P6SM BKN050 BKN060=

USA.gov is the U.S. government's official web portal to all federal, state and local government web resources and services.